Parma — V2OZ9 — position and weather

sailwx.info

Track history (hours):
 
Tides and Currents Weather Stations Pressure Air Temp Water Temp Dewpoint Dewpoint Depression Visibility Wind Speed Wind Dir Waves Ship Positions

Parma

Last reported at 2016-Apr-29 21:22 UTC. Time now 2016-May-01 09:58 UTC.
Position N 53°34' W 003°46'.

MMSI: 279073176.

Date/timePositionNaut miles runAvg speedWind from/ knotsBaromVisibWave heightAir tempDewpointWater temp
2016-Apr-29 21:22N 53°34' W 003°46'810.4
2016-Apr-29 20:33N 53°33' W 003°31'10 9.6
2016-Apr-29 19:33N 53°32' W 003°15'7 6.5
2016-Apr-29 18:33N 53°29' W 003°05'3 3.3
2016-Apr-29 17:33N 53°27' W 003°01'0 0.4
2016-Apr-29 16:33N 53°27' W 003°01'0 0.0
2016-Apr-29 15:33N 53°27' W 003°01'0 0.0
2016-Apr-29 14:33N 53°27' W 003°01'0 0.0
2016-Apr-29 13:33N 53°27' W 003°01'0 0.0
2016-Apr-29 12:33N 53°27' W 003°01'0 0.0
2016-Apr-29 11:33N 53°27' W 003°01'0 0.0
2016-Apr-29 10:30N 53°27' W 003°01'0 0.0
2016-Apr-29 09:33N 53°27' W 003°01'0 0.0
2016-Apr-29 08:33N 53°27' W 003°01'0 0.0
2016-Apr-29 07:33N 53°27' W 003°01'0 0.0
2016-Apr-29 06:30N 53°27' W 003°01'0 0.0
2016-Apr-29 05:33N 53°27' W 003°01'0 0.0
2016-Apr-29 04:33N 53°27' W 003°01'0 0.0
2016-Apr-29 03:33N 53°27' W 003°01'0 0.0
2016-Apr-29 02:33N 53°27' W 003°01'0 0.0
2016-Apr-29 01:33N 53°27' W 003°01'0 0.0
2016-Apr-29 00:33N 53°27' W 003°01'0 0.0
2016-Apr-28 23:33N 53°27' W 003°01'0 0.0
2016-Apr-28 22:33N 53°27' W 003°01'0 0.0
2016-Apr-28 21:33N 53°27' W 003°01'0 0.0
2016-Apr-28 20:33N 53°27' W 003°01'0 0.0
2016-Apr-28 19:33N 53°27' W 003°01'0 0.0
2016-Apr-28 18:30N 53°27' W 003°01'0 0.0
2016-Apr-28 17:30N 53°27' W 003°01'0 0.0
2016-Apr-28 16:33N 53°27' W 003°01'0 0.0
2016-Apr-28 15:33N 53°27' W 003°01'0 0.0
2016-Apr-28 14:33N 53°27' W 003°01'0 0.0
2016-Apr-28 13:33N 53°27' W 003°01'0 0.0
2016-Apr-28 12:33N 53°27' W 003°01'0 0.0
2016-Apr-28 11:33N 53°27' W 003°01'0 0.0
2016-Apr-28 10:33N 53°27' W 003°01'0 0.0
2016-Apr-28 09:33N 53°27' W 003°01'0 0.0
2016-Apr-28 08:33N 53°27' W 003°01'0 0.0
2016-Apr-28 07:33N 53°27' W 003°01'0 0.0
2016-Apr-28 06:33N 53°27' W 003°01'0 0.0
2016-Apr-28 05:33N 53°27' W 003°01'0 0.0
2016-Apr-28 04:33N 53°27' W 003°01'0 0.0
2016-Apr-28 03:33N 53°27' W 003°01'0 0.0
2016-Apr-28 02:33N 53°27' W 003°01'0 0.0
2016-Apr-28 01:33N 53°27' W 003°01'0 0.0
2016-Apr-28 00:27N 53°27' W 003°01'0 0.0
2016-Apr-27 23:33N 53°27' W 003°01'0 0.0
2016-Apr-27 22:33N 53°27' W 003°01'0 0.0
2016-Apr-27 21:33N 53°27' W 003°01'0 0.0
2016-Apr-27 20:33N 53°27' W 003°01'0 0.0
2016-Apr-27 19:33N 53°27' W 003°01'0 0.0
2016-Apr-27 18:33N 53°27' W 003°01'0 0.0
2016-Apr-27 17:33N 53°27' W 003°01'0 0.0
2016-Apr-27 16:33N 53°27' W 003°01'0 0.0
2016-Apr-27 15:33N 53°27' W 003°01'0 0.0
2016-Apr-27 14:33N 53°27' W 003°01'0 0.0
2016-Apr-27 13:33N 53°27' W 003°01'0 0.0
2016-Apr-27 12:33N 53°27' W 003°01'0 0.0
2016-Apr-27 11:33N 53°27' W 003°01'0 0.0
2016-Apr-27 10:33N 53°27' W 003°01'0 0.0
2016-Apr-27 09:33N 53°27' W 003°01'0 0.0
2016-Apr-27 08:33N 53°27' W 003°01'0 0.0
2016-Apr-27 07:33N 53°27' W 003°01'0 0.0
2016-Apr-27 06:32N 53°27' W 003°01'0 0.0
2016-Apr-27 05:32N 53°27' W 003°01'0 0.0
2016-Apr-27 04:29N 53°27' W 003°01'0 0.0
2016-Apr-27 03:32N 53°27' W 003°01'0 0.0
2016-Apr-27 02:32N 53°27' W 003°01'0 0.0
2016-Apr-27 01:32N 53°27' W 003°01'0 0.0
2016-Apr-27 00:23N 53°27' W 003°01'0 0.0
2016-Apr-26 23:29N 53°27' W 003°01'0 0.0
2016-Apr-26 22:32N 53°27' W 003°01'0 0.0
2016-Apr-26 21:32N 53°27' W 003°01'0 0.0
2016-Apr-26 20:32N 53°27' W 003°01'0 0.0
2016-Apr-26 19:32N 53°27' W 003°01'0 0.5
2016-Apr-26 18:33N 53°27' W 003°01'0 0.2
2016-Apr-26 17:33N 53°27' W 003°01'4 4.1
2016-Apr-26 16:33N 53°30' W 003°06'7 6.5
2016-Apr-26 15:33N 53°31' W 003°17'6 6.5
2016-Apr-26 14:33N 53°34' W 003°26'10 9.7
2016-Apr-26 13:33N 53°41' W 003°38'  
Track history (hours):
 
Tides and Currents Weather Stations Pressure Air Temp Water Temp Dewpoint Dewpoint Depression Visibility Wind Speed Wind Dir Waves Ship Positions

Parma

Last reported at 2016-Apr-29 21:22 UTC. Time now 2016-May-01 09:58 UTC.
Position N 53°34' W 003°46'.

MMSI: 279073176.

Date/timePositionNaut miles runAvg speedWind from/ knotsBaromVisibWave heightAir tempDewpointWater temp
2016-Apr-29 21:22N 53°34' W 003°46'810.4
2016-Apr-29 20:33N 53°33' W 003°31'10 9.6
2016-Apr-29 19:33N 53°32' W 003°15'7 6.5
2016-Apr-29 18:33N 53°29' W 003°05'3 3.3
2016-Apr-29 17:33N 53°27' W 003°01'0 0.4
2016-Apr-29 16:33N 53°27' W 003°01'0 0.0
2016-Apr-29 15:33N 53°27' W 003°01'0 0.0
2016-Apr-29 14:33N 53°27' W 003°01'0 0.0
2016-Apr-29 13:33N 53°27' W 003°01'0 0.0
2016-Apr-29 12:33N 53°27' W 003°01'0 0.0
2016-Apr-29 11:33N 53°27' W 003°01'0 0.0
2016-Apr-29 10:30N 53°27' W 003°01'0 0.0
2016-Apr-29 09:33N 53°27' W 003°01'0 0.0
2016-Apr-29 08:33N 53°27' W 003°01'0 0.0
2016-Apr-29 07:33N 53°27' W 003°01'0 0.0
2016-Apr-29 06:30N 53°27' W 003°01'0 0.0
2016-Apr-29 05:33N 53°27' W 003°01'0 0.0
2016-Apr-29 04:33N 53°27' W 003°01'0 0.0
2016-Apr-29 03:33N 53°27' W 003°01'0 0.0
2016-Apr-29 02:33N 53°27' W 003°01'0 0.0
2016-Apr-29 01:33N 53°27' W 003°01'0 0.0
2016-Apr-29 00:33N 53°27' W 003°01'0 0.0
2016-Apr-28 23:33N 53°27' W 003°01'0 0.0
2016-Apr-28 22:33N 53°27' W 003°01'0 0.0
2016-Apr-28 21:33N 53°27' W 003°01'0 0.0
2016-Apr-28 20:33N 53°27' W 003°01'0 0.0
2016-Apr-28 19:33N 53°27' W 003°01'0 0.0
2016-Apr-28 18:30N 53°27' W 003°01'0 0.0
2016-Apr-28 17:30N 53°27' W 003°01'0 0.0
2016-Apr-28 16:33N 53°27' W 003°01'0 0.0
2016-Apr-28 15:33N 53°27' W 003°01'0 0.0
2016-Apr-28 14:33N 53°27' W 003°01'0 0.0
2016-Apr-28 13:33N 53°27' W 003°01'0 0.0
2016-Apr-28 12:33N 53°27' W 003°01'0 0.0
2016-Apr-28 11:33N 53°27' W 003°01'0 0.0
2016-Apr-28 10:33N 53°27' W 003°01'0 0.0
2016-Apr-28 09:33N 53°27' W 003°01'0 0.0
2016-Apr-28 08:33N 53°27' W 003°01'0 0.0
2016-Apr-28 07:33N 53°27' W 003°01'0 0.0
2016-Apr-28 06:33N 53°27' W 003°01'0 0.0
2016-Apr-28 05:33N 53°27' W 003°01'0 0.0
2016-Apr-28 04:33N 53°27' W 003°01'0 0.0
2016-Apr-28 03:33N 53°27' W 003°01'0 0.0
2016-Apr-28 02:33N 53°27' W 003°01'0 0.0
2016-Apr-28 01:33N 53°27' W 003°01'0 0.0
2016-Apr-28 00:27N 53°27' W 003°01'0 0.0
2016-Apr-27 23:33N 53°27' W 003°01'0 0.0
2016-Apr-27 22:33N 53°27' W 003°01'0 0.0
2016-Apr-27 21:33N 53°27' W 003°01'0 0.0
2016-Apr-27 20:33N 53°27' W 003°01'0 0.0
2016-Apr-27 19:33N 53°27' W 003°01'0 0.0
2016-Apr-27 18:33N 53°27' W 003°01'0 0.0
2016-Apr-27 17:33N 53°27' W 003°01'0 0.0
2016-Apr-27 16:33N 53°27' W 003°01'0 0.0
2016-Apr-27 15:33N 53°27' W 003°01'0 0.0
2016-Apr-27 14:33N 53°27' W 003°01'0 0.0
2016-Apr-27 13:33N 53°27' W 003°01'0 0.0
2016-Apr-27 12:33N 53°27' W 003°01'0 0.0
2016-Apr-27 11:33N 53°27' W 003°01'0 0.0
2016-Apr-27 10:33N 53°27' W 003°01'0 0.0
2016-Apr-27 09:33N 53°27' W 003°01'0 0.0
2016-Apr-27 08:33N 53°27' W 003°01'0 0.0
2016-Apr-27 07:33N 53°27' W 003°01'0 0.0
2016-Apr-27 06:32N 53°27' W 003°01'0 0.0
2016-Apr-27 05:32N 53°27' W 003°01'0 0.0
2016-Apr-27 04:29N 53°27' W 003°01'0 0.0
2016-Apr-27 03:32N 53°27' W 003°01'0 0.0
2016-Apr-27 02:32N 53°27' W 003°01'0 0.0
2016-Apr-27 01:32N 53°27' W 003°01'0 0.0
2016-Apr-27 00:23N 53°27' W 003°01'0 0.0
2016-Apr-26 23:29N 53°27' W 003°01'0 0.0
2016-Apr-26 22:32N 53°27' W 003°01'0 0.0
2016-Apr-26 21:32N 53°27' W 003°01'0 0.0
2016-Apr-26 20:32N 53°27' W 003°01'0 0.0
2016-Apr-26 19:32N 53°27' W 003°01'0 0.5
2016-Apr-26 18:33N 53°27' W 003°01'0 0.2
2016-Apr-26 17:33N 53°27' W 003°01'4 4.1
2016-Apr-26 16:33N 53°30' W 003°06'7 6.5
2016-Apr-26 15:33N 53°31' W 003°17'6 6.5
2016-Apr-26 14:33N 53°34' W 003°26'10 9.7
2016-Apr-26 13:33N 53°41' W 003°38'  

Dump ship's entire track history